createdAt,value
2022-09-20T00:00:20.937Z,1.63
2022-09-20T00:02:48.941Z,1.50
2022-09-20T00:05:17.709Z,1.57
2022-09-20T00:07:45.808Z,1.47
2022-09-20T00:10:14.216Z,1.67
2022-09-20T00:12:42.248Z,1.60
2022-09-20T00:15:12.272Z,1.40
2022-09-20T00:17:40.269Z,1.30
2022-09-20T00:20:09.244Z,1.70
2022-09-20T00:22:37.261Z,1.70
2022-09-20T00:25:05.842Z,1.60
2022-09-20T00:27:33.837Z,1.50
2022-09-20T00:30:01.860Z,1.30
2022-09-20T00:32:32.135Z,1.40
2022-09-20T00:35:08.047Z,1.37
2022-09-20T00:37:36.101Z,1.40
2022-09-20T00:40:04.478Z,1.80
2022-09-20T00:42:32.656Z,1.37
2022-09-20T00:45:01.024Z,1.40
2022-09-20T00:47:37.284Z,1.40
2022-09-20T00:50:16.013Z,1.50
2022-09-20T00:52:44.969Z,1.27
2022-09-20T00:55:13.024Z,1.80
2022-09-20T00:57:41.027Z,1.70
2022-09-20T01:00:10.377Z,1.33
2022-09-20T01:02:41.704Z,1.57
2022-09-20T01:05:10.293Z,1.77
2022-09-20T01:07:38.273Z,1.50
2022-09-20T01:10:06.871Z,1.80
2022-09-20T01:12:35.626Z,1.50
2022-09-20T01:15:11.916Z,1.67
2022-09-20T01:17:42.974Z,1.53
2022-09-20T01:20:14.657Z,1.70
2022-09-20T01:22:54.737Z,1.60
2022-09-20T01:25:30.836Z,1.63
2022-09-20T01:28:00.523Z,1.47
2022-09-20T01:30:32.446Z,1.60
2022-09-20T01:33:07.445Z,1.70
2022-09-20T01:35:35.958Z,1.40
2022-09-20T01:38:18.056Z,1.60
2022-09-20T01:40:49.224Z,1.50
2022-09-20T01:43:22.328Z,1.77
2022-09-20T01:45:50.646Z,1.60
2022-09-20T01:48:23.779Z,1.60
2022-09-20T01:51:07.757Z,2.20
2022-09-20T01:54:01.041Z,1.60
2022-09-20T01:56:47.729Z,1.50
2022-09-20T01:59:39.619Z,2.10
2022-09-20T02:02:15.725Z,1.70
2022-09-20T02:04:57.276Z,1.60
2022-09-20T02:07:39.369Z,1.77
2022-09-20T02:10:33.420Z,1.80
2022-09-20T02:13:05.161Z,1.70
2022-09-20T02:15:47.237Z,1.30
2022-09-20T02:18:22.179Z,1.80
2022-09-20T02:20:53.794Z,2.10
2022-09-20T02:23:35.697Z,2.03
2022-09-20T02:26:32.203Z,2.00
2022-09-20T02:32:10.689Z,1.63
2022-09-20T02:35:01.543Z,1.97
2022-09-20T02:37:46.902Z,2.00
2022-09-20T02:40:22.250Z,2.10
2022-09-20T02:42:53.957Z,1.80
2022-09-20T02:45:23.965Z,1.97
2022-09-20T02:47:53.364Z,1.53
2022-09-20T02:50:28.363Z,2.07
2022-09-20T02:53:07.438Z,1.83
2022-09-20T02:55:39.863Z,1.53
2022-09-20T02:58:17.133Z,1.77
2022-09-20T03:00:47.710Z,1.63
2022-09-20T03:03:19.683Z,1.70
2022-09-20T03:05:52.552Z,1.60
2022-09-20T03:08:33.010Z,1.83
2022-09-20T03:11:05.936Z,1.67
2022-09-20T03:13:43.006Z,1.87
2022-09-20T03:16:13.967Z,1.90
2022-09-20T03:18:47.997Z,1.67
2022-09-20T03:21:26.793Z,1.80
2022-09-20T03:23:58.942Z,2.00
2022-09-20T03:26:37.482Z,1.57
2022-09-20T03:29:06.886Z,2.43
2022-09-20T03:31:50.810Z,1.73
2022-09-20T03:34:30.228Z,1.50
2022-09-20T03:37:08.910Z,1.93
2022-09-20T03:39:51.983Z,1.53
2022-09-20T03:45:32.682Z,1.90
2022-09-20T03:48:07.324Z,1.90
2022-09-20T03:50:48.029Z,1.53
2022-09-20T03:53:34.971Z,1.63
2022-09-20T03:56:39.329Z,2.10
2022-09-20T03:59:15.597Z,2.07
2022-09-20T04:02:09.931Z,1.83
2022-09-20T04:04:41.886Z,1.77
2022-09-20T04:07:18.063Z,1.60
2022-09-20T04:10:02.959Z,1.50
2022-09-20T04:12:34.489Z,1.83
2022-09-20T04:15:08.586Z,2.30
2022-09-20T04:17:50.285Z,1.80
2022-09-20T04:20:21.289Z,1.90
2022-09-20T04:22:52.383Z,1.73
2022-09-20T04:25:21.832Z,1.50
2022-09-20T04:27:51.638Z,1.27
2022-09-20T04:30:20.661Z,2.40
2022-09-20T04:32:50.756Z,1.63
2022-09-20T04:35:53.007Z,1.70
2022-09-20T04:38:23.090Z,2.03
2022-09-20T04:41:21.745Z,1.70
2022-09-20T04:44:02.490Z,1.80
2022-09-20T04:46:56.441Z,1.50
2022-09-20T04:50:11.539Z,1.60
2022-09-20T04:53:19.011Z,1.57
2022-09-20T04:55:57.176Z,1.70
2022-09-20T04:58:46.999Z,1.90
2022-09-20T05:01:55.706Z,1.80
2022-09-20T05:04:58.765Z,1.60
2022-09-20T05:07:45.851Z,1.90
2022-09-20T05:10:28.345Z,2.20
2022-09-20T05:13:08.687Z,1.80
2022-09-20T05:15:39.472Z,1.77
2022-09-20T05:18:19.611Z,2.13
2022-09-20T05:20:56.830Z,1.90
2022-09-20T05:23:44.270Z,2.13
2022-09-20T05:26:14.190Z,2.43
2022-09-20T05:28:51.103Z,2.27
2022-09-20T05:31:23.684Z,1.80
2022-09-20T05:33:54.483Z,2.30
2022-09-20T05:36:32.319Z,1.90
2022-09-20T05:39:05.283Z,1.70
2022-09-20T05:41:39.565Z,1.90
2022-09-20T05:47:00.252Z,1.83
2022-09-20T05:49:39.850Z,2.23
2022-09-20T05:52:38.065Z,1.90
2022-09-20T05:55:32.027Z,2.00
2022-09-20T05:58:16.496Z,1.67
2022-09-20T06:00:47.041Z,1.30
2022-09-20T06:03:24.546Z,2.00
2022-09-20T06:05:57.016Z,1.97
2022-09-20T06:08:51.021Z,1.97
2022-09-20T06:11:24.669Z,2.17
2022-09-20T06:14:01.141Z,1.80
2022-09-20T06:16:35.516Z,2.13
2022-09-20T06:19:07.962Z,2.00
2022-09-20T06:21:46.902Z,2.20
2022-09-20T06:24:34.014Z,2.03
2022-09-20T06:27:05.174Z,1.63
2022-09-20T06:29:34.679Z,1.87
2022-09-20T06:32:04.198Z,1.80
2022-09-20T06:34:32.228Z,1.70
2022-09-20T06:37:24.690Z,1.67
2022-09-20T06:40:14.469Z,2.63
2022-09-20T06:42:48.460Z,1.60
2022-09-20T06:45:16.451Z,2.10
2022-09-20T06:47:46.153Z,1.73
2022-09-20T06:50:16.917Z,1.70
2022-09-20T06:52:46.659Z,2.07
2022-09-20T06:55:18.450Z,2.23
2022-09-20T06:57:46.994Z,2.00
2022-09-20T07:00:15.973Z,2.37
2022-09-20T07:02:46.698Z,1.67
2022-09-20T07:05:17.719Z,1.90
2022-09-20T07:07:47.537Z,2.07
2022-09-20T07:10:16.101Z,2.10
2022-09-20T07:12:44.110Z,2.27
2022-09-20T07:15:12.509Z,1.70
2022-09-20T07:17:40.519Z,2.10
2022-09-20T07:20:10.712Z,1.83
2022-09-20T07:22:38.741Z,2.20
2022-09-20T07:25:07.819Z,1.93
2022-09-20T07:27:35.879Z,1.80
2022-09-20T07:30:03.977Z,2.67
2022-09-20T07:32:31.999Z,2.00
2022-09-20T07:35:00.142Z,2.03
2022-09-20T07:37:31.883Z,2.30
2022-09-20T07:40:03.461Z,2.00
2022-09-20T07:42:37.476Z,2.20
2022-09-20T07:45:07.743Z,2.10
2022-09-20T07:47:36.350Z,2.03
2022-09-20T07:50:04.668Z,2.00
2022-09-20T07:52:34.030Z,1.93
2022-09-20T07:55:02.079Z,2.27
2022-09-20T07:57:30.067Z,2.37
2022-09-20T07:59:58.115Z,2.03
2022-09-20T08:02:26.196Z,2.20
2022-09-20T08:04:54.223Z,2.17
2022-09-20T08:07:22.254Z,2.20
2022-09-20T08:09:51.638Z,1.70
2022-09-20T08:15:11.901Z,2.20
2022-09-20T08:17:55.771Z,1.63
2022-09-20T08:20:24.057Z,2.10
2022-09-20T08:23:19.306Z,1.93
2022-09-20T08:25:44.177Z,1.83
2022-09-20T08:28:12.199Z,2.10
2022-09-20T08:30:40.230Z,1.67
2022-09-20T08:33:08.276Z,2.13
2022-09-20T08:35:38.229Z,2.00
2022-09-20T08:40:59.114Z,2.13
2022-09-20T08:43:28.670Z,1.80
2022-09-20T08:45:57.171Z,1.80
2022-09-20T08:48:26.785Z,2.10
2022-09-20T08:50:54.808Z,2.30
2022-09-20T08:53:29.013Z,1.80
2022-09-20T08:56:06.691Z,2.20
2022-09-20T08:58:34.723Z,2.60
2022-09-20T09:01:02.778Z,2.10
2022-09-20T09:03:30.820Z,1.97
2022-09-20T09:05:59.438Z,1.80
2022-09-20T09:08:29.119Z,1.80
2022-09-20T09:10:59.455Z,1.97
2022-09-20T09:13:29.726Z,2.00
2022-09-20T09:16:00.335Z,1.60
2022-09-20T09:18:34.008Z,2.10
2022-09-20T09:21:04.211Z,2.40
2022-09-20T09:23:36.277Z,2.07
2022-09-20T09:26:06.201Z,1.80
2022-09-20T09:28:36.961Z,2.27
2022-09-20T09:31:16.030Z,1.87
2022-09-20T09:33:47.267Z,1.90
2022-09-20T09:36:16.047Z,1.87
2022-09-20T09:38:45.512Z,1.30
2022-09-20T09:41:29.902Z,1.87
2022-09-20T09:44:01.325Z,1.70
2022-09-20T09:46:33.145Z,2.20
2022-09-20T09:49:11.878Z,1.87
2022-09-20T09:51:42.493Z,2.30
2022-09-20T09:54:10.987Z,1.97
2022-09-20T09:56:57.394Z,1.60
2022-09-20T09:59:43.349Z,2.20
2022-09-20T10:02:23.556Z,1.63
2022-09-20T10:04:53.477Z,1.60
2022-09-20T10:07:23.543Z,2.00
2022-09-20T10:10:05.315Z,1.90
2022-09-20T10:12:44.250Z,1.93
2022-09-20T10:15:22.215Z,1.70
2022-09-20T10:17:53.218Z,1.40
2022-09-20T10:20:37.013Z,1.60
2022-09-20T10:26:06.691Z,1.90
2022-09-20T10:28:48.509Z,1.57
2022-09-20T10:31:25.592Z,1.90
2022-09-20T10:34:00.222Z,1.60
2022-09-20T10:36:31.312Z,1.33
2022-09-20T10:39:01.854Z,1.70
2022-09-20T10:41:55.496Z,1.50
2022-09-20T10:44:34.955Z,1.40
2022-09-20T10:47:06.994Z,1.40
2022-09-20T10:49:37.320Z,1.60
2022-09-20T10:52:24.308Z,1.67
2022-09-20T10:55:06.292Z,1.60
2022-09-20T10:57:49.918Z,1.60
2022-09-20T11:00:23.956Z,1.80
2022-09-20T11:03:03.496Z,1.40
2022-09-20T11:05:34.939Z,1.30
2022-09-20T11:08:08.062Z,1.43
2022-09-20T11:10:43.037Z,1.47
2022-09-20T11:13:26.781Z,1.73
2022-09-20T11:16:09.322Z,1.47
2022-09-20T11:18:40.663Z,1.67
2022-09-20T11:21:11.709Z,1.80
2022-09-20T11:23:47.206Z,1.17
2022-09-20T11:26:18.227Z,1.60
2022-09-20T11:28:47.278Z,1.50
2022-09-20T11:31:20.825Z,1.47
2022-09-20T11:33:52.216Z,1.40
2022-09-20T11:36:22.386Z,1.60
2022-09-20T11:38:53.402Z,1.20
2022-09-20T11:41:26.947Z,1.53
2022-09-20T11:44:11.114Z,1.40
2022-09-20T11:46:43.145Z,1.40
2022-09-20T11:49:12.864Z,1.40
2022-09-20T11:52:06.747Z,1.43
2022-09-20T11:54:43.076Z,1.50
2022-09-20T11:57:14.143Z,1.20
2022-09-20T11:59:42.521Z,1.17
2022-09-20T12:02:18.416Z,1.40
2022-09-20T12:04:47.848Z,1.20
2022-09-20T12:07:18.480Z,1.30
2022-09-20T12:09:47.382Z,1.30
2022-09-20T12:12:20.629Z,1.50
2022-09-20T12:14:55.189Z,1.60
2022-09-20T12:18:08.199Z,1.60
2022-09-20T12:21:01.564Z,1.63
2022-09-20T12:24:03.470Z,0.93
2022-09-20T12:26:46.881Z,1.23
2022-09-20T12:29:54.258Z,1.30
2022-09-20T12:32:55.019Z,1.23
2022-09-20T12:35:56.249Z,1.30
2022-09-20T12:38:39.157Z,1.33
2022-09-20T12:41:09.484Z,1.37
2022-09-20T12:43:38.584Z,1.20
2022-09-20T12:46:11.299Z,1.17
2022-09-20T12:48:40.113Z,1.30
2022-09-20T12:51:38.209Z,1.20
2022-09-20T12:54:08.719Z,1.30
2022-09-20T12:56:37.304Z,1.10
2022-09-20T12:59:07.501Z,1.20
2022-09-20T13:01:38.276Z,1.13
2022-09-20T13:04:55.394Z,1.23
2022-09-20T13:07:42.698Z,1.47
2022-09-20T13:10:36.802Z,1.30
2022-09-20T13:13:12.289Z,1.00
2022-09-20T13:15:40.627Z,0.90
2022-09-20T13:18:08.824Z,1.67
2022-09-20T13:20:37.005Z,1.40
2022-09-20T13:23:05.381Z,0.97
2022-09-20T13:25:35.110Z,2.17
2022-09-20T13:28:10.735Z,1.23
2022-09-20T13:30:40.548Z,1.20
2022-09-20T13:33:21.795Z,1.27
2022-09-20T13:35:50.651Z,1.30
2022-09-20T13:38:22.406Z,1.30
2022-09-20T13:40:51.958Z,1.37
2022-09-20T13:43:27.747Z,1.17
2022-09-20T13:46:08.015Z,1.13
2022-09-20T13:48:36.085Z,1.03
2022-09-20T13:51:04.476Z,1.10
2022-09-20T13:53:47.593Z,1.43
2022-09-20T13:56:20.720Z,1.17
2022-09-20T13:58:48.725Z,1.10
2022-09-20T14:01:25.382Z,0.90
2022-09-20T14:04:02.118Z,1.20
2022-09-20T14:06:30.142Z,0.90
2022-09-20T14:08:58.540Z,0.97
2022-09-20T14:11:29.356Z,1.13
2022-09-20T14:13:58.060Z,1.20
2022-09-20T14:16:29.913Z,1.20
2022-09-20T14:18:58.579Z,1.17
2022-09-20T14:21:27.697Z,1.10
2022-09-20T14:23:57.326Z,0.87
2022-09-20T14:26:28.060Z,1.20
2022-09-20T14:28:56.234Z,0.93
2022-09-20T14:31:26.126Z,1.00
2022-09-20T14:33:55.592Z,0.90
2022-09-20T14:36:24.690Z,1.03
2022-09-20T14:38:54.504Z,0.77
2022-09-20T14:41:33.277Z,0.77
2022-09-20T14:44:02.638Z,0.90
2022-09-20T14:46:33.825Z,1.13
2022-09-20T14:49:19.842Z,1.20
2022-09-20T14:51:47.872Z,1.20
2022-09-20T14:54:26.970Z,1.00
2022-09-20T14:56:57.656Z,0.77
2022-09-20T14:59:26.436Z,0.80
2022-09-20T15:02:00.329Z,1.07
2022-09-20T15:04:28.717Z,0.80
2022-09-20T15:06:56.858Z,0.93
2022-09-20T15:09:24.888Z,0.77
2022-09-20T15:12:04.481Z,1.03
2022-09-20T15:14:37.115Z,0.90
2022-09-20T15:17:05.986Z,1.10
2022-09-20T15:19:34.505Z,1.00
2022-09-20T15:22:02.593Z,0.90
2022-09-20T15:24:30.617Z,0.87
2022-09-20T15:26:58.623Z,0.80
2022-09-20T15:29:28.237Z,0.80
2022-09-20T15:31:56.370Z,1.00
2022-09-20T15:34:31.124Z,0.73
2022-09-20T15:36:59.160Z,1.00
2022-09-20T15:39:28.031Z,0.90
2022-09-20T15:41:56.081Z,0.97
2022-09-20T15:44:24.105Z,0.77
2022-09-20T15:46:53.702Z,0.70
2022-09-20T15:49:22.145Z,0.80
2022-09-20T15:51:50.546Z,1.00
2022-09-20T15:54:18.567Z,0.80
2022-09-20T15:56:46.578Z,1.43
2022-09-20T15:59:16.076Z,1.00
2022-09-20T16:01:47.856Z,0.90
2022-09-20T16:04:19.297Z,1.10
2022-09-20T16:06:47.957Z,0.87
2022-09-20T16:09:16.106Z,0.93
2022-09-20T16:11:49.292Z,0.70
2022-09-20T16:14:33.467Z,0.77
2022-09-20T16:17:01.581Z,1.00
2022-09-20T16:19:30.566Z,0.93
2022-09-20T16:21:59.405Z,1.00
2022-09-20T16:24:28.504Z,0.80
2022-09-20T16:26:56.559Z,0.90
2022-09-20T16:29:26.000Z,0.90
2022-09-20T16:31:57.653Z,0.80
2022-09-20T16:34:29.732Z,1.00
2022-09-20T16:36:59.864Z,0.87
2022-09-20T16:39:28.616Z,0.83
2022-09-20T16:41:57.938Z,0.97
2022-09-20T16:44:26.004Z,0.80
2022-09-20T16:46:54.194Z,0.90
2022-09-20T16:49:23.288Z,1.00
2022-09-20T16:51:51.326Z,0.97
2022-09-20T16:54:20.762Z,1.10
2022-09-20T16:56:49.486Z,0.87
2022-09-20T16:59:18.280Z,1.20
2022-09-20T17:01:46.374Z,0.93
2022-09-20T17:04:18.364Z,0.77
2022-09-20T17:06:46.713Z,0.87
2022-09-20T17:09:15.160Z,1.10
2022-09-20T17:11:45.774Z,0.90
2022-09-20T17:14:13.913Z,0.87
2022-09-20T17:16:42.638Z,1.00
2022-09-20T17:19:12.181Z,0.80
2022-09-20T17:21:46.510Z,0.97
2022-09-20T17:24:14.870Z,0.70
2022-09-20T17:26:45.149Z,0.67
2022-09-20T17:29:15.323Z,0.70
2022-09-20T17:31:44.134Z,1.00
2022-09-20T17:34:13.059Z,1.17
2022-09-20T17:36:41.902Z,0.63
2022-09-20T17:39:12.515Z,0.90
2022-09-20T17:41:40.637Z,0.80
2022-09-20T17:44:10.199Z,0.90
2022-09-20T17:46:39.366Z,0.80
2022-09-20T17:49:08.838Z,0.60
2022-09-20T17:51:37.570Z,0.87
2022-09-20T17:54:05.844Z,0.80
2022-09-20T17:56:34.665Z,0.73
2022-09-20T17:59:10.500Z,0.53
2022-09-20T18:01:38.752Z,0.73
2022-09-20T18:04:07.442Z,0.77
2022-09-20T18:06:36.448Z,0.73
2022-09-20T18:09:06.133Z,0.67
2022-09-20T18:11:34.967Z,1.10
2022-09-20T18:14:03.409Z,0.80
2022-09-20T18:16:33.884Z,0.80
2022-09-20T18:19:02.037Z,0.97
2022-09-20T18:21:30.819Z,0.73
2022-09-20T18:23:59.143Z,0.90
2022-09-20T18:26:27.798Z,0.87
2022-09-20T18:28:57.117Z,0.83
2022-09-20T18:31:27.278Z,0.77
2022-09-20T18:34:24.271Z,0.93
2022-09-20T18:36:53.503Z,0.80
2022-09-20T18:39:23.064Z,0.87
2022-09-20T18:41:51.097Z,0.90
2022-09-20T18:44:19.470Z,0.80
2022-09-20T18:46:47.716Z,0.80
2022-09-20T18:49:17.589Z,0.90
2022-09-20T18:51:46.390Z,0.80
2022-09-20T18:54:14.431Z,0.97
2022-09-20T18:56:43.143Z,0.83
2022-09-20T18:59:15.663Z,1.20
2022-09-20T19:01:57.012Z,1.10
2022-09-20T19:04:42.752Z,1.10
2022-09-20T19:07:17.416Z,1.20
2022-09-20T19:09:47.600Z,1.13
2022-09-20T19:12:19.341Z,1.43
2022-09-20T19:15:06.005Z,2.03
2022-09-20T19:17:42.371Z,1.10
2022-09-20T19:20:13.754Z,1.00
2022-09-20T19:22:46.053Z,0.93
2022-09-20T19:25:21.829Z,1.20
2022-09-20T19:27:50.336Z,1.20
2022-09-20T19:30:19.422Z,1.43
2022-09-20T19:32:48.071Z,1.40
2022-09-20T19:35:20.054Z,1.40
2022-09-20T19:38:00.936Z,1.37
2022-09-20T19:40:33.374Z,1.53
2022-09-20T19:43:13.415Z,1.53
2022-09-20T19:45:44.652Z,1.33
2022-09-20T19:48:16.558Z,1.63
2022-09-20T19:50:46.692Z,1.40
2022-09-20T19:53:15.321Z,1.63
2022-09-20T19:55:47.163Z,1.40
2022-09-20T19:58:15.646Z,1.30
2022-09-20T20:00:45.429Z,1.50
2022-09-20T20:03:14.074Z,1.67
2022-09-20T20:05:42.363Z,1.43
2022-09-20T20:08:15.824Z,1.57
2022-09-20T20:10:50.789Z,2.03
2022-09-20T20:13:39.878Z,1.90
2022-09-20T20:16:08.834Z,1.57
2022-09-20T20:18:38.918Z,2.17
2022-09-20T20:21:08.930Z,1.77
2022-09-20T20:23:48.861Z,1.57
2022-09-20T20:26:20.445Z,1.40
2022-09-20T20:28:48.547Z,1.77
2022-09-20T20:31:22.997Z,1.80
2022-09-20T20:33:51.372Z,1.73
2022-09-20T20:36:19.390Z,1.60
2022-09-20T20:38:52.637Z,1.80
2022-09-20T20:41:21.443Z,1.83
2022-09-20T20:43:49.640Z,1.73
2022-09-20T20:46:18.847Z,2.27
2022-09-20T20:51:33.123Z,1.77
2022-09-20T20:54:02.537Z,1.93
2022-09-20T20:56:30.968Z,1.70
2022-09-20T20:59:00.553Z,1.90
2022-09-20T21:01:29.632Z,1.73
2022-09-20T21:03:58.086Z,1.97
2022-09-20T21:06:28.546Z,2.17
2022-09-20T21:08:56.741Z,1.83
2022-09-20T21:11:27.406Z,2.00
2022-09-20T21:13:57.120Z,2.40
2022-09-20T21:16:25.877Z,1.70
2022-09-20T21:18:53.910Z,1.90
2022-09-20T21:21:29.187Z,1.97
2022-09-20T21:23:58.196Z,1.97
2022-09-20T21:26:28.387Z,2.20
2022-09-20T21:28:59.539Z,1.77
2022-09-20T21:31:28.728Z,2.00
2022-09-20T21:33:56.806Z,2.00
2022-09-20T21:36:26.766Z,1.80
2022-09-20T21:38:54.886Z,1.67
2022-09-20T21:41:23.579Z,1.80
2022-09-20T21:43:55.285Z,2.40
2022-09-20T21:46:25.334Z,1.80
2022-09-20T21:48:53.469Z,1.87
2022-09-20T21:51:21.845Z,2.03
2022-09-20T21:53:50.363Z,2.20
2022-09-20T21:56:18.713Z,2.27
2022-09-20T21:58:47.001Z,2.10
2022-09-20T22:01:17.745Z,2.03
2022-09-20T22:03:46.588Z,1.80
2022-09-20T22:06:15.282Z,1.80
2022-09-20T22:08:46.606Z,2.10
2022-09-20T22:11:15.831Z,2.20
2022-09-20T22:13:44.307Z,2.00
2022-09-20T22:16:13.304Z,1.90
2022-09-20T22:18:43.466Z,2.20
2022-09-20T22:21:12.764Z,2.10
2022-09-20T22:23:40.906Z,2.43
2022-09-20T22:26:10.539Z,1.90
2022-09-20T22:28:38.760Z,2.17
2022-09-20T22:31:07.859Z,1.80
2022-09-20T22:33:36.267Z,2.27
2022-09-20T22:36:09.161Z,2.17
2022-09-20T22:38:40.314Z,2.20
2022-09-20T22:41:08.346Z,2.23
2022-09-20T22:43:36.355Z,1.80
2022-09-20T22:46:04.919Z,1.77
2022-09-20T22:48:33.042Z,2.10
2022-09-20T22:51:01.782Z,2.50
2022-09-20T22:53:31.708Z,2.47
2022-09-20T22:56:04.461Z,2.40
2022-09-20T22:58:34.873Z,2.10
2022-09-20T23:01:07.354Z,2.13
2022-09-20T23:03:35.430Z,2.43
2022-09-20T23:06:04.129Z,2.37
2022-09-20T23:08:34.307Z,2.53
2022-09-20T23:11:03.426Z,2.30
2022-09-20T23:13:31.492Z,1.87
2022-09-20T23:15:59.575Z,2.13
2022-09-20T23:18:27.699Z,2.10
2022-09-20T23:21:02.097Z,2.03
2022-09-20T23:23:30.299Z,2.63
2022-09-20T23:26:07.463Z,2.30
2022-09-20T23:28:36.187Z,2.20
2022-09-20T23:31:04.901Z,2.20
2022-09-20T23:33:33.024Z,2.40
2022-09-20T23:36:01.048Z,2.73
2022-09-20T23:38:29.117Z,2.17
2022-09-20T23:40:57.688Z,2.20
2022-09-20T23:43:27.069Z,2.07
2022-09-20T23:45:55.126Z,2.73
2022-09-20T23:48:23.188Z,2.57
2022-09-20T23:50:51.200Z,2.40
2022-09-20T23:53:19.527Z,2.33
2022-09-20T23:55:47.584Z,2.63
2022-09-20T23:58:15.794Z,2.37
